Time;durP1;ratioP1;P1;durP2;ratioP2;P2;SDS_P1;SDS_P2;PMS_P1;PMS_P2;Temp;Humidity;BMP_temperature;BMP_pressure;BME280_temperature;BME280_humidity;BME280_pressure;Samples;Min_cycle;Max_cycle;Signal;HPM_P1;HPM_P2
2021/12/21 00:02:31;;;;;;;12.03;5.80;;;;;;;-3.02;98.39;96187.25;6123099;23;20215;-83
2021/12/21 00:09:14;;;;;;;17.37;6.30;;;;;;;-3.12;98.23;96175.75;6069616;23;20170;-84
2021/12/21 00:12:14;;;;;;;11.50;5.30;;;;;;;-3.09;98.49;96179.88;6115296;23;20187;-83
2021/12/21 00:15:43;;;;;;;12.73;6.00;;;;;;;-3.17;98.68;96167.47;6137915;23;20184;-83
2021/12/21 00:21:34;;;;;;;11.20;5.93;;;;;;;-3.13;98.68;96157.13;6071857;23;20177;-81
2021/12/21 00:24:09;;;;;;;16.93;6.10;;;;;;;-3.23;98.17;96158.31;6028463;23;20181;-83
2021/12/21 00:27:00;;;;;;;13.60;6.13;;;;;;;-3.20;98.32;96160.75;6026657;23;20188;-83
2021/12/21 00:29:33;;;;;;;14.83;5.77;;;;;;;-3.19;98.80;96174.28;6046787;23;20165;-81
2021/12/21 00:32:09;;;;;;;15.00;5.60;;;;;;;-3.27;98.42;96169.47;6057547;23;20577;-82
2021/12/21 00:34:42;;;;;;;15.47;5.60;;;;;;;-3.22;98.65;96166.75;6097805;23;20194;-80
2021/12/21 00:37:23;;;;;;;11.73;5.70;;;;;;;-3.27;98.58;96156.78;6075003;23;20172;-81
2021/12/21 00:40:01;;;;;;;16.90;5.90;;;;;;;-3.33;98.58;96162.03;6048931;23;20184;-84
2021/12/21 00:42:41;;;;;;;13.40;6.20;;;;;;;-3.33;98.70;96164.56;6060446;23;20183;-81
2021/12/21 00:45:09;;;;;;;15.87;5.17;;;;;;;-3.37;98.88;96163.00;6072858;23;20239;-80
2021/12/21 00:47:56;;;;;;;17.47;5.97;;;;;;;-3.42;98.40;96153.00;6088456;23;20188;-81
2021/12/21 00:50:26;;;;;;;12.37;5.40;;;;;;;-3.47;98.05;96156.56;6059676;23;20558;-84
2021/12/21 00:53:12;;;;;;;20.30;6.20;;;;;;;-3.39;98.29;96154.59;6103046;23;20160;-81
2021/12/21 00:55:52;;;;;;;12.57;5.20;;;;;;;-3.40;98.08;96158.03;6053799;23;20592;-83
2021/12/21 00:58:26;;;;;;;12.70;5.93;;;;;;;-3.42;97.87;96157.25;6218395;23;20168;-82
2021/12/21 01:01:07;;;;;;;12.67;4.67;;;;;;;-3.40;97.80;96157.19;6202186;23;20164;-83
2021/12/21 01:03:48;;;;;;;14.53;5.67;;;;;;;-3.44;97.88;96149.69;6227315;22;20192;-82
2021/12/21 01:12:06;;;;;;;11.13;5.60;;;;;;;-3.57;97.97;96145.84;6228263;23;20224;-83
2021/12/21 01:17:45;;;;;;;;;;;;;;;;;;;;;
2021/12/21 01:20:53;;;;;;;14.33;5.37;;;;;;;-3.61;98.29;96138.41;6249448;23;20205;-81
2021/12/21 01:24:13;;;;;;;10.77;4.43;;;;;;;-3.73;97.94;96140.41;6200035;23;20180;-81
2021/12/21 01:27:20;;;;;;;;;;;;;;;;;;;;;
2021/12/21 02:00:27;;;;;;;11.67;4.97;;;;;;;-3.88;98.09;96135.00;6010909;23;20204;-82
2021/12/21 02:14:22;;;;;;;10.80;4.73;;;;;;;-3.84;97.66;96126.41;6279049;22;20176;-82
2021/12/21 02:26:46;;;;;;;6.17;3.97;;;;;;;-3.80;97.29;96123.75;6223803;23;20415;-82
2021/12/21 02:32:41;;;;;;;10.77;4.00;;;;;;;-3.91;96.69;96110.53;6222001;23;20211;-80
2021/12/21 02:38:38;;;;;;;10.33;4.60;;;;;;;-4.03;97.17;96105.84;6216168;23;20166;-82
2021/12/21 02:41:36;;;;;;;11.50;4.50;;;;;;;-3.94;97.29;96114.88;6096275;23;20201;-81
2021/12/21 02:44:57;;;;;;;14.33;5.00;;;;;;;-3.96;97.06;96106.50;6071888;23;20184;-83
2021/12/21 02:48:15;;;;;;;11.43;4.47;;;;;;;-4.03;97.51;96104.13;6095699;23;20164;-81
2021/12/21 02:51:07;;;;;;;13.20;5.00;;;;;;;-4.04;97.10;96101.66;6008819;23;20507;-83
2021/12/21 03:05:35;;;;;;;;;;;;;;;;;;;;;
2021/12/21 04:18:34;;;;;;;10.00;5.50;;;;;;;-4.35;97.50;96089.84;5884548;24;20245;-84
2021/12/21 05:11:21;;;;;;;15.73;7.47;;;;;;;-4.66;98.22;96079.78;5956726;24;20195;-82
2021/12/21 05:14:45;;;;;;;;;;;;;;;;;;;;;
2021/12/21 05:18:14;;;;;;;14.23;7.07;;;;;;;-4.56;98.62;96065.13;5899201;24;20300;-82
2021/12/21 05:21:01;;;;;;;18.83;10.23;;;;;;;-4.61;98.33;96066.97;5896782;24;20161;-83
2021/12/21 06:30:43;;;;;;;18.40;8.90;;;;;;;-4.82;98.31;96062.50;6185675;23;20616;-82
2021/12/21 06:36:21;;;;;;;14.07;7.97;;;;;;;-4.93;98.79;96066.19;6014230;23;20184;-83
2021/12/21 06:38:46;;;;;;;14.73;8.70;;;;;;;-4.97;98.83;96069.66;5984627;23;20166;-82
2021/12/21 06:41:12;;;;;;;13.30;8.43;;;;;;;-4.98;99.37;96062.91;6007791;23;20699;-84
2021/12/21 06:43:37;;;;;;;12.87;8.90;;;;;;;-4.97;99.58;96067.13;5985301;23;20687;-86
2021/12/21 06:52:34;;;;;;;13.60;9.17;;;;;;;-4.88;98.99;96063.50;6009324;23;20154;-85
2021/12/21 06:55:11;;;;;;;14.60;8.33;;;;;;;-4.94;99.09;96077.19;5989304;23;20182;-87
2021/12/21 06:57:39;;;;;;;20.77;8.60;;;;;;;-4.85;98.38;96066.78;6011262;23;20170;-83
2021/12/21 07:00:06;;;;;;;16.67;8.83;;;;;;;-4.87;98.48;96076.13;6009331;23;20171;-84
2021/12/21 07:02:31;;;;;;;20.10;9.00;;;;;;;-4.89;99.04;96075.34;6008218;23;20161;-84
2021/12/21 07:04:56;;;;;;;15.43;9.30;;;;;;;-4.96;98.64;96078.06;5984663;23;20223;-84
2021/12/21 07:07:22;;;;;;;16.17;9.17;;;;;;;-4.92;98.92;96088.09;6008290;23;20632;-84
2021/12/21 07:09:58;;;;;;;13.00;8.53;;;;;;;-4.87;98.75;96081.19;5986049;23;20166;-83
2021/12/21 07:17:58;;;;;;;12.97;8.40;;;;;;;-4.91;98.48;96091.47;6018883;23;20184;-83
2021/12/21 07:18:07;;;;;;;14.77;7.40;;;;;;;-5.00;98.87;96090.00;6126342;23;20155;-82
2021/12/21 07:20:33;;;;;;;16.27;8.43;;;;;;;-4.97;98.50;96089.91;6124666;23;20154;-83
2021/12/21 07:22:58;;;;;;;12.07;8.53;;;;;;;-5.00;98.94;96091.72;6075914;23;20156;-83
2021/12/21 07:25:27;;;;;;;14.00;8.03;;;;;;;-4.81;98.51;96087.78;6100604;23;20651;-83
2021/12/21 07:27:53;;;;;;;11.97;7.53;;;;;;;-4.94;98.04;96094.91;6076719;23;20214;-83
2021/12/21 07:30:18;;;;;;;15.63;7.53;;;;;;;-4.91;98.33;96092.28;6100450;23;20172;-83
2021/12/21 07:32:44;;;;;;;14.70;8.30;;;;;;;-4.86;98.14;96090.47;6123574;23;20174;-83
2021/12/21 07:35:09;;;;;;;11.43;7.50;;;;;;;-4.98;98.24;96092.50;6099826;23;20259;-83
2021/12/21 07:37:35;;;;;;;14.17;8.27;;;;;;;-5.05;98.14;96096.88;6124730;23;20152;-81
2021/12/21 07:40:02;;;;;;;12.37;7.73;;;;;;;-4.99;98.23;96096.72;6126480;23;20166;-83
2021/12/21 07:42:27;;;;;;;12.03;7.63;;;;;;;-4.99;98.18;96100.97;6100629;23;20156;-82
2021/12/21 07:44:53;;;;;;;15.30;8.20;;;;;;;-5.02;98.49;96094.28;6100475;23;20207;-82
2021/12/21 07:47:18;;;;;;;12.30;8.13;;;;;;;-4.93;98.19;96096.56;6148955;23;20597;-83
2021/12/21 07:49:44;;;;;;;16.60;8.40;;;;;;;-4.96;97.98;96094.09;6100061;23;20499;-81
2021/12/21 07:52:10;;;;;;;13.67;8.10;;;;;;;-4.88;97.52;96097.25;6123878;23;20216;-84
2021/12/21 07:54:36;;;;;;;13.50;8.87;;;;;;;-4.83;97.49;96093.78;6100336;23;20184;-83
2021/12/21 07:57:02;;;;;;;16.33;8.07;;;;;;;-4.87;97.38;96096.38;6124456;23;20156;-83
2021/12/21 07:59:28;;;;;;;16.57;8.30;;;;;;;-4.85;97.95;96097.19;6099889;23;20259;-84
2021/12/21 08:01:53;;;;;;;15.40;8.23;;;;;;;-4.75;98.18;96095.25;6124969;23;20176;-84
2021/12/21 08:04:26;;;;;;;15.73;8.27;;;;;;;-4.66;97.35;96099.22;6125767;23;20233;-82
2021/12/21 08:06:53;;;;;;;13.77;7.53;;;;;;;-4.51;97.23;96097.94;6103655;23;20586;-83
2021/12/21 08:09:18;;;;;;;14.63;7.73;;;;;;;-4.52;96.92;96097.13;6125331;23;20191;-82
2021/12/21 08:14:27;;;;;;;15.00;7.73;;;;;;;-4.54;96.73;96106.47;6126519;23;20154;-82
2021/12/21 08:16:53;;;;;;;14.97;7.77;;;;;;;-4.52;97.52;96112.31;6107877;23;20163;-82
2021/12/21 08:19:18;;;;;;;13.37;7.97;;;;;;;-4.52;97.10;96108.97;6136619;23;20152;-83
2021/12/21 08:21:43;;;;;;;12.90;8.43;;;;;;;-4.44;97.00;96107.03;6107648;23;20168;-83
2021/12/21 08:24:09;;;;;;;15.60;7.47;;;;;;;-4.37;97.35;96106.00;6104744;23;20155;-82
2021/12/21 08:26:34;;;;;;;12.33;7.40;;;;;;;-4.34;97.44;96106.72;6128819;23;20176;-82
2021/12/21 08:28:59;;;;;;;11.47;6.80;;;;;;;-4.23;97.29;96108.16;6103189;23;20191;-82
2021/12/21 08:31:25;;;;;;;12.87;7.63;;;;;;;-4.18;96.65;96109.66;6126223;23;20180;-83
2021/12/21 08:33:53;;;;;;;12.67;7.93;;;;;;;-4.08;96.60;96112.75;6102494;23;20188;-82
2021/12/21 08:36:18;;;;;;;15.20;8.03;;;;;;;-4.06;96.27;96114.38;6127609;23;20180;-83
2021/12/21 08:38:44;;;;;;;11.27;7.10;;;;;;;-3.94;96.45;96113.16;6126518;23;20163;-83
2021/12/21 08:41:09;;;;;;;13.60;7.00;;;;;;;-3.88;95.69;96109.63;6125436;23;20164;-82
2021/12/21 08:43:36;;;;;;;10.57;6.43;;;;;;;-3.76;95.86;96115.16;6101360;23;20649;-83
2021/12/21 08:46:02;;;;;;;12.37;6.93;;;;;;;-3.73;95.51;96115.03;6125753;23;20611;-83
2021/12/21 08:48:27;;;;;;;8.87;5.80;;;;;;;-3.67;95.11;96108.94;6101763;23;20164;-83
2021/12/21 08:50:54;;;;;;;9.07;6.13;;;;;;;-3.58;95.44;96111.19;6125763;23;20560;-83
2021/12/21 08:53:26;;;;;;;12.57;6.40;;;;;;;-3.43;94.70;96113.25;6099560;23;20620;-83
2021/12/21 08:55:53;;;;;;;9.90;5.93;;;;;;;-3.46;94.03;96099.81;6126719;23;20175;-83
2021/12/21 08:58:19;;;;;;;11.97;6.40;;;;;;;-3.37;94.16;96102.03;6125676;23;20500;-85
2021/12/21 09:00:44;;;;;;;15.67;6.53;;;;;;;-3.34;94.17;96103.69;6101341;23;20160;-83
2021/12/21 09:03:10;;;;;;;10.47;6.03;;;;;;;-3.26;93.95;96096.63;6125475;23;20152;-82
2021/12/21 09:05:36;;;;;;;8.23;6.07;;;;;;;-3.18;93.47;96099.72;6125477;23;20234;-84
2021/12/21 09:08:03;;;;;;;13.63;6.30;;;;;;;-3.06;93.29;96095.97;6098365;23;20164;-83
2021/12/21 09:10:29;;;;;;;10.30;5.73;;;;;;;-3.11;93.50;96095.28;6100597;23;20610;-84
2021/12/21 09:12:55;;;;;;;13.53;6.80;;;;;;;-3.07;92.57;96104.47;6099953;23;20184;-84
2021/12/21 09:15:22;;;;;;;8.03;5.97;;;;;;;-3.04;92.89;96097.56;6100611;23;20916;-84
2021/12/21 09:17:48;;;;;;;8.90;6.33;;;;;;;-3.01;92.67;96094.91;6100139;23;20167;-83
2021/12/21 09:20:17;;;;;;;6.93;4.83;;;;;;;-2.97;92.14;96098.19;6100076;23;20156;-83
2021/12/21 09:22:42;;;;;;;13.90;6.67;;;;;;;-2.97;92.67;96095.66;6123754;23;20591;-82
2021/12/21 09:25:08;;;;;;;8.63;5.90;;;;;;;-2.92;92.14;96102.22;6100249;23;20262;-83
2021/12/21 09:27:34;;;;;;;8.70;5.30;;;;;;;-2.78;92.10;96095.84;6099717;23;20164;-83
2021/12/21 09:30:00;;;;;;;8.27;5.60;;;;;;;-2.72;91.30;96104.09;6101242;23;20156;-83
2021/12/21 09:32:25;;;;;;;7.50;5.27;;;;;;;-2.72;91.02;96106.63;6105694;23;20179;-83
2021/12/21 09:34:51;;;;;;;8.73;5.50;;;;;;;-2.77;90.60;96103.41;6153681;23;20179;-83
2021/12/21 09:37:20;;;;;;;8.57;5.87;;;;;;;-2.77;90.82;96108.47;6129836;23;20222;-83
2021/12/21 09:39:49;;;;;;;12.00;5.77;;;;;;;-2.74;91.19;96107.53;6105851;23;20210;-83
2021/12/21 09:42:19;;;;;;;8.97;5.70;;;;;;;-2.62;91.08;96107.13;6128990;23;20206;-83
2021/12/21 09:44:44;;;;;;;7.27;5.90;;;;;;;-2.57;90.28;96106.06;6129621;23;20656;-83
2021/12/21 09:47:10;;;;;;;9.87;5.97;;;;;;;-2.51;89.82;96115.19;6104957;23;20159;-83
2021/12/21 09:49:36;;;;;;;8.87;6.27;;;;;;;-2.43;90.09;96113.22;6105184;23;20170;-83
2021/12/21 09:52:03;;;;;;;7.77;5.63;;;;;;;-2.48;89.29;96120.16;6104558;23;20194;-82
2021/12/21 09:54:30;;;;;;;14.00;6.03;;;;;;;-2.32;89.65;96108.56;6129220;23;20194;-82
2021/12/21 09:56:56;;;;;;;8.93;5.43;;;;;;;-2.37;88.77;96105.38;6129295;23;20555;-83
2021/12/21 09:59:21;;;;;;;11.77;5.30;;;;;;;-2.35;89.42;96111.22;6128976;23;20159;-84
2021/12/21 10:01:46;;;;;;;9.73;5.70;;;;;;;-2.34;88.90;96110.31;6128955;23;20151;-83
2021/12/21 10:04:12;;;;;;;8.30;5.20;;;;;;;-2.22;88.73;96101.41;6129668;23;20158;-83
2021/12/21 10:06:47;;;;;;;11.67;5.70;;;;;;;-2.14;87.91;96104.50;6132108;23;20183;-82
2021/12/21 10:09:13;;;;;;;8.73;5.33;;;;;;;-2.12;88.27;96092.56;6131887;23;20156;-83
2021/12/21 10:11:44;;;;;;;7.80;5.60;;;;;;;-2.16;88.10;96091.00;6129089;23;20627;-84
2021/12/21 10:14:10;;;;;;;10.47;5.30;;;;;;;-2.12;87.70;96092.56;6106901;23;20194;-84
2021/12/21 10:16:35;;;;;;;7.20;5.03;;;;;;;-2.04;87.40;96093.06;6129567;23;20511;-84
2021/12/21 10:19:00;;;;;;;9.07;5.83;;;;;;;-2.06;87.21;96092.31;6129689;23;20239;-83
2021/12/21 10:21:26;;;;;;;9.23;5.43;;;;;;;-1.96;86.95;96091.97;6103941;23;20187;-82
2021/12/21 10:23:52;;;;;;;9.03;5.03;;;;;;;-2.06;86.71;96096.56;6129366;23;20209;-82
2021/12/21 10:26:24;;;;;;;7.57;5.27;;;;;;;-1.95;85.77;96096.16;6105599;23;20183;-84
2021/12/21 10:28:52;;;;;;;8.60;4.87;;;;;;;-1.88;86.11;96095.03;6105474;23;20164;-85
2021/12/21 10:31:48;;;;;;;10.43;5.37;;;;;;;-1.96;86.14;96100.44;6129312;23;20567;-84
2021/12/21 10:34:18;;;;;;;17.73;10.37;;;;;;;-1.89;85.21;96101.03;6105667;23;20194;-84
2021/12/21 10:36:46;;;;;;;11.33;6.37;;;;;;;-1.84;84.81;96091.50;6105558;23;20637;-84
2021/12/21 10:39:19;;;;;;;9.67;5.20;;;;;;;-1.87;84.95;96087.34;6105343;23;20641;-85
2021/12/21 10:41:45;;;;;;;11.87;6.10;;;;;;;-1.85;85.71;96084.75;6129075;23;20156;-85
2021/12/21 10:44:18;;;;;;;11.87;6.03;;;;;;;-1.78;85.74;96081.91;6129720;23;20213;-85
2021/12/21 10:46:50;;;;;;;10.20;5.60;;;;;;;-1.73;85.50;96079.19;6154856;23;20159;-85
2021/12/21 10:49:21;;;;;;;9.03;5.67;;;;;;;-1.70;84.69;96066.31;6105250;23;20155;-84
2021/12/21 10:52:04;;;;;;;8.23;4.90;;;;;;;-1.59;85.25;96071.84;6104425;23;20155;-85
2021/12/21 10:54:46;;;;;;;9.37;4.40;;;;;;;-1.56;84.69;96074.25;6128601;23;20251;-84
2021/12/21 10:57:20;;;;;;;8.03;4.57;;;;;;;-1.58;84.69;96068.41;6104453;23;20159;-84
2021/12/21 10:59:48;;;;;;;8.17;5.47;;;;;;;-1.60;85.00;96072.69;6128832;23;20544;-84
2021/12/21 11:02:21;;;;;;;9.00;5.00;;;;;;;-1.51;84.70;96069.78;6104417;23;20203;-84
2021/12/21 11:04:50;;;;;;;9.20;5.47;;;;;;;-1.57;84.71;96064.13;6105913;23;20498;-84
2021/12/21 11:07:27;;;;;;;10.07;5.77;;;;;;;-1.45;84.12;96073.81;6130646;23;20160;-84
2021/12/21 11:09:58;;;;;;;9.33;5.60;;;;;;;-1.62;84.03;96064.28;6127170;23;20495;-85
2021/12/21 11:12:25;;;;;;;11.33;5.37;;;;;;;-1.50;84.58;96070.63;6128396;23;20215;-84
2021/12/21 11:14:51;;;;;;;11.17;5.30;;;;;;;-1.45;84.24;96058.53;6104711;23;20183;-84
2021/12/21 11:17:16;;;;;;;7.13;5.27;;;;;;;-1.32;83.97;96061.41;6104072;23;20160;-82
2021/12/21 11:19:42;;;;;;;8.13;5.27;;;;;;;-1.46;84.28;96065.34;6104215;23;20228;-85
2021/12/21 11:22:08;;;;;;;9.03;5.57;;;;;;;-1.32;84.46;96066.50;6154115;23;20160;-84
2021/12/21 11:24:36;;;;;;;9.53;5.67;;;;;;;-1.33;84.28;96062.28;6104167;23;20159;-84
2021/12/21 11:27:02;;;;;;;10.97;4.60;;;;;;;-1.22;84.15;96058.41;6128734;23;20626;-84
2021/12/21 11:29:30;;;;;;;10.57;4.97;;;;;;;-1.28;84.04;96057.84;6154674;23;20199;-84
2021/12/21 11:31:57;;;;;;;9.47;4.77;;;;;;;-1.19;83.37;96049.81;6128209;23;20577;-84
2021/12/21 11:34:31;;;;;;;10.40;4.60;;;;;;;-1.14;83.30;96042.81;6104462;23;20525;-84
2021/12/21 11:39:41;;;;;;;8.80;4.50;;;;;;;-1.15;82.71;96051.31;6158885;23;20488;-85
2021/12/21 11:42:09;;;;;;;10.07;5.23;;;;;;;-1.08;83.07;96050.19;6130568;23;20171;-84
2021/12/21 11:44:50;;;;;;;5.90;4.30;;;;;;;-1.11;82.80;96047.75;6106668;23;20236;-85
2021/12/21 11:47:18;;;;;;;9.63;4.83;;;;;;;-1.04;81.24;96048.34;6131316;23;20157;-85
2021/12/21 11:49:47;;;;;;;7.10;5.17;;;;;;;-0.97;81.59;96049.72;6131387;23;20173;-83
2021/12/21 11:52:15;;;;;;;7.93;4.23;;;;;;;-1.13;81.97;96056.38;6105880;23;20169;-83
2021/12/21 11:54:45;;;;;;;6.50;4.03;;;;;;;-1.10;82.07;96048.59;6130782;23;20512;-84
2021/12/21 11:57:11;;;;;;;7.27;4.50;;;;;;;-0.98;81.74;96043.78;6131311;23;20602;-83
2021/12/21 11:59:37;;;;;;;11.90;4.47;;;;;;;-0.85;81.49;96044.09;6131213;23;20154;-84
2021/12/21 12:02:04;;;;;;;6.73;3.97;;;;;;;-0.86;80.80;96038.19;6130709;23;20599;-84
2021/12/21 12:04:29;;;;;;;7.23;4.43;;;;;;;-0.83;80.09;96036.38;6106545;23;20163;-84
2021/12/21 12:06:57;;;;;;;5.73;4.23;;;;;;;-0.91;80.36;96031.59;6130099;23;20200;-83
2021/12/21 12:09:27;;;;;;;5.87;4.37;;;;;;;-0.82;80.79;96032.94;6104523;23;20180;-84
2021/12/21 12:12:04;;;;;;;9.17;4.50;;;;;;;-0.89;80.74;96038.28;6105038;23;20164;-84
2021/12/21 12:14:30;;;;;;;9.57;5.03;;;;;;;-0.81;81.37;96037.13;6130399;23;20174;-84
2021/12/21 12:16:57;;;;;;;8.53;5.30;;;;;;;-0.83;81.93;96036.38;6130389;23;20632;-84
2021/12/21 12:19:35;;;;;;;9.33;5.50;;;;;;;-0.83;80.76;96024.47;6130280;23;20161;-83
2021/12/21 12:22:15;;;;;;;6.40;4.77;;;;;;;-0.89;80.57;96032.38;6105033;23;20164;-84
2021/12/21 12:24:57;;;;;;;7.80;5.53;;;;;;;-0.92;81.80;96035.88;6129839;23;20518;-84
2021/12/21 12:27:25;;;;;;;10.57;5.73;;;;;;;-0.92;83.10;96037.59;6154366;23;20156;-84
2021/12/21 12:29:54;;;;;;;6.13;4.80;;;;;;;-0.77;83.02;96041.22;6104834;23;20244;-83
2021/12/21 12:32:40;;;;;;;7.83;5.43;;;;;;;-0.76;80.45;96040.31;6128859;23;20208;-83
2021/12/21 12:35:17;;;;;;;9.47;6.07;;;;;;;-0.76;80.84;96033.50;6105280;23;20181;-83
2021/12/21 12:37:54;;;;;;;8.53;5.07;;;;;;;-0.71;80.85;96038.38;6130172;23;20162;-83
2021/12/21 12:40:23;;;;;;;11.83;6.77;;;;;;;-0.76;81.34;96030.94;6129893;23;20167;-84
2021/12/21 12:43:08;;;;;;;8.83;5.37;;;;;;;-0.68;80.68;96036.53;6104777;23;20157;-84
2021/12/21 12:46:03;;;;;;;9.47;6.10;;;;;;;-0.74;81.74;96030.88;6129729;23;20268;-83
2021/12/21 12:48:32;;;;;;;9.17;6.40;;;;;;;-0.76;82.38;96027.56;6130214;23;20182;-83
2021/12/21 12:50:59;;;;;;;9.43;5.70;;;;;;;-0.77;83.24;96026.75;6130114;23;20658;-82
2021/12/21 12:53:43;;;;;;;12.57;6.53;;;;;;;-0.74;81.34;96024.06;6104403;23;20220;-84
2021/12/21 12:56:10;;;;;;;9.40;5.50;;;;;;;-0.66;81.74;96023.72;6130045;23;20188;-84
2021/12/21 12:58:36;;;;;;;9.17;6.20;;;;;;;-0.72;81.91;96024.81;6131220;23;20604;-85
2021/12/21 13:01:21;;;;;;;10.97;5.10;;;;;;;-0.62;81.52;96017.56;6105725;23;20162;-84
2021/12/21 13:03:46;;;;;;;7.90;5.20;;;;;;;-0.63;82.39;96018.47;6129913;23;20142;-84
2021/12/21 13:06:13;;;;;;;11.90;6.03;;;;;;;-0.75;83.03;96022.41;6104871;23;20230;-84
2021/12/21 13:08:39;;;;;;;10.47;6.33;;;;;;;-0.70;82.79;96022.22;6103557;23;20303;-84
2021/12/21 13:11:04;;;;;;;9.90;6.90;;;;;;;-0.74;83.40;96021.50;6104681;23;20162;-82
2021/12/21 13:13:36;;;;;;;12.60;7.30;;;;;;;-0.86;83.76;96027.97;6153657;23;20507;-81
2021/12/21 13:16:10;;;;;;;10.90;6.90;;;;;;;-0.76;83.94;96022.47;6105358;23;20189;-82
2021/12/21 13:18:44;;;;;;;9.90;6.93;;;;;;;-0.66;83.10;96031.38;6105655;23;20146;-84
2021/12/21 13:21:30;;;;;;;18.87;6.97;;;;;;;-0.78;82.83;96024.28;6104400;23;20160;-84
2021/12/21 13:24:15;;;;;;;12.13;7.43;;;;;;;-0.77;82.74;96025.94;6129139;23;20154;-84
2021/12/21 13:26:52;;;;;;;12.20;7.60;;;;;;;-0.83;82.83;96014.25;6105140;23;20215;-83
2021/12/21 13:29:21;;;;;;;11.90;6.60;;;;;;;-0.81;83.63;96021.84;6154247;23;20148;-84
2021/12/21 13:31:51;;;;;;;11.33;6.50;;;;;;;-0.71;83.18;96020.53;6153026;23;20249;-85
2021/12/21 13:34:21;;;;;;;12.77;6.33;;;;;;;-0.73;82.98;96023.16;6104983;23;20179;-84
2021/12/21 13:36:50;;;;;;;10.90;6.53;;;;;;;-0.75;83.58;96024.94;6104198;23;20158;-84
2021/12/21 13:39:29;;;;;;;10.57;6.57;;;;;;;-0.69;82.78;96024.69;6104799;23;20166;-84
2021/12/21 13:41:59;;;;;;;15.53;6.77;;;;;;;-0.97;82.29;96030.19;6152700;23;20157;-85
2021/12/21 13:44:28;;;;;;;8.50;6.60;;;;;;;-0.88;82.12;96037.44;6153412;23;20153;-85
2021/12/21 13:46:56;;;;;;;12.17;6.73;;;;;;;-1.06;82.54;96027.16;6104842;23;20220;-84
2021/12/21 13:49:21;;;;;;;9.83;6.57;;;;;;;-1.16;83.58;96030.09;6103841;23;20169;-84
2021/12/21 13:51:58;;;;;;;9.83;7.10;;;;;;;-1.17;83.93;96025.06;6153858;23;20165;-84
2021/12/21 13:54:25;;;;;;;10.93;7.13;;;;;;;-1.20;83.93;96028.59;6128766;23;20182;-84
2021/12/21 13:56:51;;;;;;;9.27;6.63;;;;;;;-1.18;84.08;96033.63;6128689;23;20208;-85
2021/12/21 13:59:17;;;;;;;12.30;6.90;;;;;;;-1.35;83.90;96023.31;6104421;23;20158;-84
2021/12/21 14:01:45;;;;;;;10.87;6.17;;;;;;;-1.42;84.22;96025.28;6128370;23;20166;-82
2021/12/21 14:04:14;;;;;;;11.20;6.67;;;;;;;-1.48;84.85;96028.91;6105028;23;20190;-84
2021/12/21 14:06:41;;;;;;;9.33;6.00;;;;;;;-1.59;85.45;96026.00;6153266;23;20181;-83
2021/12/21 14:09:09;;;;;;;8.80;6.00;;;;;;;-1.52;85.15;96029.91;6102802;23;20154;-82
2021/12/21 14:11:36;;;;;;;9.20;6.10;;;;;;;-1.58;85.07;96034.47;6103669;23;20166;-81
2021/12/21 14:14:16;;;;;;;11.20;6.20;;;;;;;-1.52;85.25;96031.63;6153536;23;20189;-82
2021/12/21 14:16:43;;;;;;;6.70;5.87;;;;;;;-1.52;84.73;96024.81;6129641;23;20162;-83
2021/12/21 14:19:13;;;;;;;9.33;6.17;;;;;;;-1.58;85.36;96034.47;6128851;23;20248;-83
2021/12/21 14:21:39;;;;;;;7.80;6.77;;;;;;;-1.52;84.98;96036.72;6153214;23;20168;-84
2021/12/21 14:24:07;;;;;;;19.17;6.67;;;;;;;-1.58;85.19;96031.91;6129817;23;20157;-84
2021/12/21 14:26:38;;;;;;;9.10;6.07;;;;;;;-1.55;85.15;96027.50;6105170;23;20208;-83
2021/12/21 14:29:07;;;;;;;9.63;6.37;;;;;;;-1.62;86.03;96031.19;6104969;23;20588;-83
2021/12/21 14:31:47;;;;;;;9.73;6.60;;;;;;;-1.69;86.47;96041.69;6104506;23;20169;-82
2021/12/21 14:34:22;;;;;;;12.40;9.57;;;;;;;-1.72;87.29;96040.09;6105911;23;20232;-83
2021/12/21 14:36:47;;;;;;;12.00;7.77;;;;;;;-1.77;87.40;96042.84;6104628;23;20154;-83
2021/12/21 14:39:15;;;;;;;13.63;7.03;;;;;;;-1.75;87.00;96038.50;6105182;23;20224;-83
2021/12/21 14:41:47;;;;;;;15.87;8.07;;;;;;;-1.74;87.35;96039.34;6128396;23;20220;-83
2021/12/21 14:44:15;;;;;;;9.93;7.27;;;;;;;-1.79;87.62;96036.13;6129106;23;20140;-83
2021/12/21 14:46:57;;;;;;;10.53;6.87;;;;;;;-1.91;88.22;96036.63;6129046;23;20186;-84
2021/12/21 14:49:41;;;;;;;8.93;6.87;;;;;;;-1.94;88.03;96034.19;6128826;23;20145;-83
2021/12/21 14:52:18;;;;;;;9.77;6.90;;;;;;;-1.90;88.27;96035.72;6104968;23;20149;-83
2021/12/21 14:54:51;;;;;;;11.57;7.17;;;;;;;-2.06;88.13;96035.50;6105330;23;20234;-83
2021/12/21 14:57:33;;;;;;;11.47;7.13;;;;;;;-2.11;88.60;96030.59;6105819;23;20168;-83
2021/12/21 14:59:59;;;;;;;11.93;7.67;;;;;;;-2.22;88.71;96040.34;6129087;23;20156;-83
2021/12/21 15:04:58;;;;;;;9.43;6.47;;;;;;;-2.27;89.05;96032.06;6128915;23;20186;-84
2021/12/21 15:07:23;;;;;;;9.47;7.37;;;;;;;-2.37;89.68;96035.84;6104030;23;20163;-86
2021/12/21 15:09:49;;;;;;;14.00;7.67;;;;;;;-2.48;90.45;96038.78;6102637;23;20163;-85
2021/12/21 15:12:16;;;;;;;14.13;6.80;;;;;;;-2.46;90.58;96039.56;6128200;23;20155;-85
2021/12/21 15:14:42;;;;;;;11.57;7.40;;;;;;;-2.52;90.02;96036.41;6104942;23;20191;-83
2021/12/21 15:17:07;;;;;;;11.70;7.17;;;;;;;-2.62;90.93;96026.59;6128967;23;20689;-83
2021/12/21 15:19:32;;;;;;;10.30;7.27;;;;;;;-2.64;91.19;96025.81;6128343;23;20174;-84
2021/12/21 15:21:58;;;;;;;9.90;6.90;;;;;;;-2.73;90.91;96031.25;6128011;23;20163;-85
2021/12/21 15:24:23;;;;;;;9.93;7.70;;;;;;;-2.68;91.73;96034.44;6129561;23;20167;-84
2021/12/21 15:26:48;;;;;;;14.10;7.83;;;;;;;-2.80;91.30;96034.06;6129329;23;20168;-84
2021/12/21 15:29:13;;;;;;;11.90;8.43;;;;;;;-2.90;91.77;96036.09;6129305;23;20161;-83
2021/12/21 15:31:39;;;;;;;11.63;7.93;;;;;;;-2.83;92.14;96041.78;6128299;23;20632;-83
2021/12/21 15:34:04;;;;;;;13.93;8.27;;;;;;;-2.95;92.16;96043.06;6128891;23;20634;-83
2021/12/21 15:36:29;;;;;;;14.93;7.77;;;;;;;-3.04;92.32;96043.38;6128285;23;20254;-84
2021/12/21 15:38:56;;;;;;;16.27;10.20;;;;;;;-3.11;92.71;96042.75;6128532;23;20155;-84
2021/12/21 15:41:22;;;;;;;13.30;8.80;;;;;;;-3.14;93.03;96050.50;6128387;23;20214;-84
2021/12/21 15:43:47;;;;;;;16.80;11.20;;;;;;;-3.19;93.15;96055.72;6103922;23;20235;-84
2021/12/21 15:46:13;;;;;;;20.43;12.40;;;;;;;-3.25;93.53;96048.31;6104242;23;20235;-83
2021/12/21 15:48:43;;;;;;;28.17;13.20;;;;;;;-3.33;93.42;96049.47;6128248;23;20159;-84
2021/12/21 15:51:09;;;;;;;39.60;15.50;;;;;;;-3.40;93.81;96050.53;6104503;23;20170;-84
2021/12/21 15:53:34;;;;;;;30.43;15.30;;;;;;;-3.48;94.02;96054.16;6103312;23;20238;-84
2021/12/21 15:55:59;;;;;;;31.93;16.13;;;;;;;-3.51;93.97;96053.44;6127702;23;20180;-83
2021/12/21 15:58:25;;;;;;;33.00;16.53;;;;;;;-3.53;94.55;96055.22;6127990;23;20156;-84
2021/12/21 16:00:50;;;;;;;24.43;13.30;;;;;;;-3.56;94.51;96045.13;6128258;23;20163;-85
2021/12/21 16:03:15;;;;;;;20.70;11.67;;;;;;;-3.59;94.61;96042.72;6103491;23;20197;-84
2021/12/21 16:05:41;;;;;;;16.67;11.10;;;;;;;-3.65;95.07;96045.44;6128387;23;20187;-84
2021/12/21 16:08:07;;;;;;;16.40;9.87;;;;;;;-3.69;94.72;96051.50;6102828;23;20171;-84
2021/12/21 16:10:32;;;;;;;14.60;9.37;;;;;;;-3.73;95.21;96054.13;6128969;23;20473;-84
2021/12/21 16:12:57;;;;;;;14.30;9.70;;;;;;;-3.76;95.43;96055.94;6128551;23;20187;-83
2021/12/21 16:15:23;;;;;;;12.43;9.50;;;;;;;-3.72;95.60;96071.00;6128878;23;20203;-84
2021/12/21 16:17:48;;;;;;;14.10;8.93;;;;;;;-3.74;95.76;96055.00;6128642;23;20159;-83
2021/12/21 16:20:15;;;;;;;13.67;8.47;;;;;;;-3.71;96.23;96054.94;6104480;23;20502;-84
2021/12/21 16:22:41;;;;;;;13.87;9.17;;;;;;;-3.75;95.75;96055.88;6105745;23;20178;-84
2021/12/21 16:25:08;;;;;;;15.00;8.90;;;;;;;-3.72;96.02;96055.78;6105735;23;20633;-83
2021/12/21 16:27:34;;;;;;;13.60;9.53;;;;;;;-3.81;96.17;96045.91;6130535;23;20211;-85
2021/12/21 16:30:20;;;;;;;17.27;8.77;;;;;;;-3.81;96.44;96045.09;6107750;23;20240;-84
2021/12/21 16:32:48;;;;;;;14.57;8.07;;;;;;;-3.80;96.18;96047.59;6154345;23;20213;-84
2021/12/21 16:35:14;;;;;;;18.10;9.20;;;;;;;-3.87;96.09;96050.38;6131851;23;20175;-85
2021/12/21 16:37:39;;;;;;;15.70;9.63;;;;;;;-3.92;96.21;96053.06;6106528;23;20193;-85
2021/12/21 16:40:05;;;;;;;16.30;9.13;;;;;;;-3.97;96.31;96042.22;6130420;23;20190;-85
2021/12/21 16:42:30;;;;;;;13.20;8.63;;;;;;;-3.99;96.37;96042.25;6105335;23;20159;-84
2021/12/21 16:44:56;;;;;;;13.40;8.20;;;;;;;-3.96;96.53;96046.44;6130520;23;20649;-84
2021/12/21 16:47:21;;;;;;;11.20;8.80;;;;;;;-4.03;96.46;96045.78;6130080;23;20476;-84